createdAt,value
2017-11-23T06:38:27.379Z,0.00
2017-11-23T06:39:41.045Z,0.00
2017-11-23T06:39:41.538Z,0.00
2017-11-23T06:39:42.044Z,0.00
2017-11-23T06:39:42.538Z,0.00
2017-11-23T06:39:43.034Z,0.00
2017-11-23T06:39:43.543Z,0.00
2017-11-23T06:39:44.032Z,0.00
2017-11-23T06:39:44.535Z,0.00
2017-11-23T06:39:45.033Z,0.00
2017-11-23T06:39:45.534Z,0.00
2017-11-23T06:40:40.058Z,0.00
2017-11-23T06:40:40.548Z,0.00
2017-11-23T06:40:41.036Z,0.00
2017-11-23T06:40:41.547Z,0.00
2017-11-23T06:40:42.035Z,0.00
2017-11-23T06:40:42.542Z,0.00
2017-11-23T06:41:55.864Z,0.00
2017-11-23T06:41:56.357Z,0.00
2017-11-23T06:41:56.848Z,0.00
2017-11-23T06:41:57.462Z,0.00
2017-11-23T06:41:57.956Z,0.00
2017-11-23T06:43:11.909Z,0.00
2017-11-23T06:43:12.388Z,0.00
2017-11-23T06:43:12.871Z,0.00
2017-11-23T06:43:13.375Z,0.00
2017-11-23T06:43:13.884Z,0.00
2017-11-23T06:43:14.385Z,0.00
2017-11-23T06:43:14.901Z,0.00
2017-11-23T06:43:15.390Z,0.00
2017-11-23T06:43:15.895Z,0.00
2017-11-23T06:44:10.411Z,0.00
2017-11-23T06:44:11.425Z,0.00
2017-11-23T06:44:12.442Z,0.00
2017-11-23T06:44:12.939Z,0.00
2017-11-23T06:44:14.429Z,0.00
2017-11-23T06:45:08.967Z,0.00
2017-11-23T06:45:09.967Z,0.00
2017-11-23T06:45:10.427Z,0.00
2017-11-23T06:45:10.918Z,0.00
2017-11-23T06:45:11.433Z,0.00
2017-11-23T06:45:11.933Z,0.00
2017-11-23T06:46:25.233Z,0.00
2017-11-23T06:46:25.728Z,0.00
2017-11-23T06:46:26.737Z,0.00
2017-11-23T06:46:27.223Z,0.00
2017-11-23T06:46:29.234Z,0.00
2017-11-23T06:47:24.290Z,0.00
2017-11-23T06:47:24.786Z,0.00
2017-11-23T06:47:25.297Z,0.00
2017-11-23T06:47:25.794Z,0.00
2017-11-23T06:47:27.291Z,0.00
2017-11-23T06:47:27.766Z,0.00
2017-11-23T06:48:22.283Z,0.00
2017-11-23T06:48:22.781Z,0.00
2017-11-23T06:48:23.793Z,0.00
2017-11-23T06:48:24.305Z,0.00
2017-11-23T06:48:24.798Z,0.00
2017-11-23T06:49:38.549Z,0.00
2017-11-23T06:49:39.014Z,0.00
2017-11-23T06:49:39.500Z,0.00
2017-11-23T06:49:40.011Z,0.00
2017-11-23T06:49:40.460Z,0.00
2017-11-23T06:49:40.973Z,0.00
2017-11-23T06:49:41.424Z,0.00
2017-11-23T06:49:41.948Z,0.00
2017-11-23T06:50:36.325Z,0.00
2017-11-23T06:50:36.822Z,0.00
2017-11-23T06:50:36.828Z,0.00
2017-11-23T06:50:37.313Z,0.00
2017-11-23T06:51:53.623Z,0.00
2017-11-23T06:51:53.656Z,0.00
2017-11-23T06:53:06.949Z,0.00
2017-11-23T06:53:07.439Z,0.00
2017-11-23T06:53:07.945Z,0.00
2017-11-23T06:53:08.437Z,0.00
2017-11-23T06:53:08.909Z,0.00
2017-11-23T06:53:10.427Z,0.00
2017-11-23T06:54:24.362Z,0.00
2017-11-23T06:54:24.804Z,0.00
2017-11-23T06:54:25.873Z,0.00
2017-11-23T06:54:26.891Z,0.00
2017-11-23T06:54:27.354Z,0.00
2017-11-23T06:54:28.408Z,0.00
2017-11-23T06:55:22.920Z,0.00
2017-11-23T06:55:23.415Z,0.00
2017-11-23T06:55:24.433Z,0.00
2017-11-23T06:55:24.942Z,0.00
2017-11-23T06:55:25.408Z,0.00
2017-11-23T06:55:25.859Z,0.00
2017-11-23T06:55:26.951Z,0.00
2017-11-23T06:56:22.493Z,0.00
2017-11-23T06:56:24.013Z,0.00
2017-11-23T06:56:24.515Z,0.00
2017-11-23T06:57:38.474Z,0.00
2017-11-23T06:57:38.949Z,0.00
2017-11-23T06:57:39.967Z,0.00
2017-11-23T06:57:40.424Z,0.00
2017-11-23T06:57:40.934Z,0.00
2017-11-23T06:57:41.385Z,0.00
2017-11-23T06:57:41.876Z,0.00
2017-11-23T06:57:42.374Z,0.00
2017-11-23T06:58:36.488Z,0.00
2017-11-23T06:58:36.981Z,0.00
2017-11-23T06:59:50.264Z,0.00
2017-11-23T06:59:50.754Z,0.00
2017-11-23T07:01:04.032Z,0.00
2017-11-23T07:01:05.043Z,0.00
2017-11-23T07:01:05.536Z,0.00
2017-11-23T07:01:06.556Z,0.00
2017-11-23T07:01:07.081Z,0.00
2017-11-23T07:01:07.558Z,0.00
2017-11-23T07:01:08.065Z,0.00
2017-11-23T07:02:02.653Z,0.00
2017-11-23T07:02:03.099Z,0.00
2017-11-23T07:02:03.558Z,0.00
2017-11-23T07:02:04.067Z,0.00
2017-11-23T07:02:04.556Z,0.00
2017-11-23T07:02:06.644Z,0.00
2017-11-23T07:03:01.146Z,0.00
2017-11-23T07:03:01.640Z,0.00
2017-11-23T07:03:02.101Z,0.00
2017-11-23T07:03:02.587Z,0.00
2017-11-23T07:03:03.050Z,0.00
2017-11-23T07:03:03.543Z,0.00
2017-11-23T07:03:04.053Z,0.00
2017-11-23T07:03:04.544Z,0.00
2017-11-23T07:03:05.049Z,0.00
2017-11-23T07:03:59.003Z,0.00
2017-11-23T07:03:59.496Z,0.00
2017-11-23T07:03:59.952Z,0.00
2017-11-23T07:04:00.986Z,0.00
2017-11-23T07:04:01.487Z,0.00
2017-11-23T07:04:02.004Z,0.00
2017-11-23T07:04:02.489Z,0.00
2017-11-23T07:05:16.461Z,0.00
2017-11-23T07:05:16.945Z,0.00
2017-11-23T07:05:17.436Z,0.00
2017-11-23T07:05:17.930Z,0.00
2017-11-23T07:05:18.441Z,0.00
2017-11-23T07:05:18.949Z,0.00
2017-11-23T07:06:33.888Z,5.63
2017-11-23T07:06:34.900Z,5.63
2017-11-23T07:06:35.393Z,5.63
2017-11-23T07:06:36.394Z,5.63
2017-11-23T07:06:36.907Z,5.63
2017-11-23T07:07:31.421Z,5.63
2017-11-23T07:07:31.910Z,5.63
2017-11-23T07:07:32.404Z,5.63
2017-11-23T07:07:33.440Z,5.63
2017-11-23T07:07:33.954Z,5.63
2017-11-23T07:07:34.473Z,5.63
2017-11-23T07:07:34.944Z,5.63
2017-11-23T07:07:35.454Z,5.63
2017-11-23T07:08:29.975Z,5.63
2017-11-23T07:08:30.932Z,5.63
2017-11-23T07:08:31.435Z,5.63
2017-11-23T07:08:31.464Z,5.63
2017-11-23T07:08:31.964Z,5.63
2017-11-23T07:08:32.428Z,5.63
2017-11-23T07:08:32.935Z,5.63
2017-11-23T07:08:33.430Z,5.63
2017-11-23T07:08:33.941Z,5.63
2017-11-23T07:09:28.663Z,5.63
2017-11-23T07:10:42.295Z,5.63
2017-11-23T07:10:42.780Z,5.63
2017-11-23T07:10:43.274Z,5.63
2017-11-23T07:10:44.288Z,5.63
2017-11-23T07:10:45.794Z,5.63
2017-11-23T07:11:41.025Z,5.63
2017-11-23T07:11:41.473Z,5.63
2017-11-23T07:11:41.947Z,5.63
2017-11-23T07:11:42.434Z,5.63
2017-11-23T07:11:43.831Z,5.63
2017-11-23T07:12:38.865Z,5.63
2017-11-23T07:12:39.347Z,5.63
2017-11-23T07:12:39.848Z,5.63
2017-11-23T07:12:40.348Z,5.63
2017-11-23T07:12:40.829Z,5.63
2017-11-23T07:12:41.348Z,5.63
2017-11-23T07:12:41.828Z,5.63
2017-11-23T07:12:42.331Z,5.63
2017-11-23T07:12:42.821Z,5.63
2017-11-23T07:13:37.427Z,5.63
2017-11-23T07:13:37.884Z,5.63
2017-11-23T07:13:38.934Z,5.63
2017-11-23T07:13:39.433Z,5.63
2017-11-23T07:13:40.914Z,5.63
2017-11-23T07:14:54.858Z,11.25
2017-11-23T07:14:55.353Z,11.25
2017-11-23T07:14:55.850Z,11.25
2017-11-23T07:14:56.334Z,11.25
2017-11-23T07:16:09.640Z,11.25
2017-11-23T07:16:10.084Z,11.25
2017-11-23T07:16:10.581Z,11.25
2017-11-23T07:16:11.647Z,11.25
2017-11-23T07:16:12.122Z,11.25
2017-11-23T07:16:12.617Z,11.25
2017-11-23T07:16:13.622Z,11.25
2017-11-23T07:17:09.182Z,11.25
2017-11-23T07:17:10.677Z,11.25
2017-11-23T07:17:11.181Z,11.25
2017-11-23T07:17:11.700Z,11.25
2017-11-23T07:17:12.149Z,11.25
2017-11-23T07:18:06.680Z,11.25
2017-11-23T07:18:07.182Z,11.25
2017-11-23T07:18:07.666Z,11.25
2017-11-23T07:18:08.158Z,11.25
2017-11-23T07:18:09.216Z,11.25
2017-11-23T07:18:09.709Z,11.25
2017-11-23T07:18:10.206Z,11.25
2017-11-23T07:19:24.664Z,16.88
2017-11-23T07:19:25.158Z,16.88
2017-11-23T07:19:25.656Z,16.88
2017-11-23T07:19:26.164Z,16.88
2017-11-23T07:19:26.655Z,16.88
2017-11-23T07:19:27.165Z,16.88
2017-11-23T07:19:27.612Z,16.88
2017-11-23T07:19:28.082Z,16.88
2017-11-23T07:20:43.037Z,16.88
2017-11-23T07:20:43.538Z,16.88
2017-11-23T07:20:43.997Z,16.88
2017-11-23T07:21:57.813Z,11.25
2017-11-23T07:21:58.310Z,11.25
2017-11-23T07:21:58.810Z,11.25
2017-11-23T07:21:59.308Z,11.25
2017-11-23T07:21:59.825Z,11.25
2017-11-23T07:22:00.301Z,11.25
2017-11-23T07:22:00.802Z,11.25
2017-11-23T07:22:01.295Z,11.25
2017-11-23T07:22:55.832Z,11.25
2017-11-23T07:22:56.326Z,11.25
2017-11-23T07:22:56.813Z,11.25
2017-11-23T07:22:57.314Z,11.25
2017-11-23T07:22:57.805Z,11.25
2017-11-23T07:22:58.307Z,11.25
2017-11-23T07:22:59.359Z,11.25
2017-11-23T07:22:59.855Z,11.25
2017-11-23T07:23:54.383Z,16.88
2017-11-23T07:23:54.829Z,16.88
2017-11-23T07:23:55.321Z,16.88
2017-11-23T07:23:55.826Z,16.88
2017-11-23T07:23:56.305Z,16.88
2017-11-23T07:23:57.406Z,16.88
2017-11-23T07:23:57.927Z,16.88
2017-11-23T07:23:58.426Z,16.88
2017-11-23T07:24:54.460Z,16.88
2017-11-23T07:24:54.906Z,16.88
2017-11-23T07:24:54.946Z,16.88
2017-11-23T07:26:08.245Z,16.88
2017-11-23T07:26:08.736Z,16.88
2017-11-23T07:26:09.243Z,16.88
2017-11-23T07:26:10.246Z,16.88
2017-11-23T07:26:10.773Z,16.88
2017-11-23T07:26:11.270Z,16.88
2017-11-23T07:26:11.768Z,16.88
2017-11-23T07:26:12.236Z,16.88
2017-11-23T07:27:28.326Z,16.88
2017-11-23T07:27:28.828Z,16.88
2017-11-23T07:27:29.316Z,16.88
2017-11-23T07:27:29.825Z,16.88
2017-11-23T07:27:30.321Z,16.88
2017-11-23T07:27:30.843Z,16.88
2017-11-23T07:28:25.348Z,16.88
2017-11-23T07:28:26.359Z,16.88
2017-11-23T07:28:26.867Z,16.88
2017-11-23T07:28:27.358Z,16.88
2017-11-23T07:28:27.874Z,16.88
2017-11-23T07:28:28.871Z,16.88
2017-11-23T07:28:29.374Z,16.88
2017-11-23T07:29:23.925Z,22.50
2017-11-23T07:29:24.425Z,22.50
2017-11-23T07:29:24.907Z,22.50
2017-11-23T07:29:25.396Z,22.50
2017-11-23T07:29:25.906Z,22.50
2017-11-23T07:29:26.430Z,22.50
2017-11-23T07:29:26.886Z,22.50
2017-11-23T07:29:27.910Z,22.50
2017-11-23T07:30:22.470Z,16.88
2017-11-23T07:30:22.922Z,16.88
2017-11-23T07:30:23.375Z,16.88
2017-11-23T07:30:23.871Z,16.88
2017-11-23T07:30:24.965Z,16.88
2017-11-23T07:30:25.482Z,16.88
2017-11-23T07:30:25.965Z,16.88
2017-11-23T07:30:26.432Z,16.88
2017-11-23T07:31:21.329Z,22.50
2017-11-23T07:31:21.436Z,22.50
2017-11-23T07:31:21.934Z,22.50
2017-11-23T07:31:22.450Z,22.50
2017-11-23T07:31:22.895Z,22.50
2017-11-23T07:31:23.398Z,22.50
2017-11-23T07:32:36.703Z,22.50
2017-11-23T07:32:37.198Z,22.50
2017-11-23T07:32:37.693Z,22.50
2017-11-23T07:32:38.719Z,22.50
2017-11-23T07:32:39.234Z,22.50
2017-11-23T07:32:39.724Z,22.50
2017-11-23T07:32:40.239Z,22.50
2017-11-23T07:32:40.708Z,22.50
2017-11-23T07:33:35.265Z,28.13
2017-11-23T07:33:36.741Z,28.13
2017-11-23T07:33:37.209Z,28.13
2017-11-23T07:33:38.239Z,28.13
2017-11-23T07:33:39.238Z,28.13
2017-11-23T07:34:33.799Z,28.13
2017-11-23T07:34:34.287Z,22.50
2017-11-23T07:34:34.777Z,22.50
2017-11-23T07:34:35.225Z,22.50
2017-11-23T07:34:35.735Z,22.50
2017-11-23T07:34:36.772Z,22.50
2017-11-23T07:35:50.074Z,22.50
2017-11-23T07:35:50.558Z,22.50
2017-11-23T07:35:51.043Z,22.50
2017-11-23T07:35:52.091Z,22.50
2017-11-23T07:35:52.615Z,22.50
2017-11-23T07:35:53.103Z,22.50
2017-11-23T07:35:53.613Z,22.50
2017-11-23T07:35:54.114Z,22.50
2017-11-23T07:36:48.663Z,28.13
2017-11-23T07:36:49.148Z,28.13
2017-11-23T07:36:50.630Z,28.13
2017-11-23T07:36:51.138Z,28.13
2017-11-23T07:36:51.639Z,28.13
2017-11-23T07:36:52.141Z,28.13
2017-11-23T07:38:06.114Z,28.13
2017-11-23T07:38:06.607Z,28.13
2017-11-23T07:38:07.064Z,28.13
2017-11-23T07:38:07.516Z,28.13
2017-11-23T07:38:08.032Z,28.13
2017-11-23T07:38:08.524Z,28.13
2017-11-23T07:38:09.024Z,28.13
2017-11-23T07:38:09.526Z,28.13
2017-11-23T07:38:10.042Z,28.13
2017-11-23T07:39:04.616Z,28.13
2017-11-23T07:39:05.104Z,28.13
2017-11-23T07:39:05.605Z,28.13
2017-11-23T07:39:06.671Z,28.13
2017-11-23T07:39:07.154Z,28.13
2017-11-23T07:39:07.648Z,28.13
2017-11-23T07:40:20.963Z,33.75
2017-11-23T07:40:21.444Z,33.75
2017-11-23T07:40:21.934Z,33.75
2017-11-23T07:40:22.423Z,33.75
2017-11-23T07:40:22.935Z,33.75
2017-11-23T07:40:23.422Z,33.75
2017-11-23T07:40:23.935Z,33.75
2017-11-23T07:40:24.431Z,33.75
2017-11-23T07:41:38.380Z,33.75
2017-11-23T07:41:39.380Z,33.75
2017-11-23T07:41:39.886Z,33.75
2017-11-23T07:41:40.393Z,33.75
2017-11-23T07:42:54.716Z,33.75
2017-11-23T07:42:56.185Z,33.75
2017-11-23T07:42:56.658Z,33.75
2017-11-23T07:42:57.160Z,33.75
2017-11-23T07:44:13.123Z,28.13
2017-11-23T07:44:13.614Z,28.13
2017-11-23T07:44:14.536Z,28.13
2017-11-23T07:44:15.047Z,28.13
2017-11-23T07:45:29.503Z,28.13
2017-11-23T07:45:30.021Z,28.13
2017-11-23T07:45:30.510Z,28.13
2017-11-23T07:45:32.000Z,28.13
2017-11-23T07:46:48.985Z,28.13
2017-11-23T07:46:49.508Z,28.13
2017-11-23T07:48:03.453Z,28.13
2017-11-23T07:48:03.937Z,28.13
2017-11-23T07:48:04.437Z,28.13
2017-11-23T07:48:04.917Z,28.13
2017-11-23T07:48:05.966Z,28.13
2017-11-23T07:48:06.465Z,28.13
2017-11-23T07:49:20.437Z,33.75
2017-11-23T07:49:20.927Z,33.75
2017-11-23T07:49:21.425Z,33.75
2017-11-23T07:49:22.908Z,33.75
2017-11-23T07:50:36.188Z,33.75
2017-11-23T07:50:36.686Z,33.75
2017-11-23T07:50:37.715Z,33.75
2017-11-23T07:50:38.225Z,33.75
2017-11-23T07:51:52.195Z,39.38
2017-11-23T07:51:52.683Z,39.38
2017-11-23T07:51:53.170Z,39.38
2017-11-23T07:51:53.685Z,39.38
2017-11-23T07:51:54.139Z,39.38
2017-11-23T07:51:54.635Z,39.38
2017-11-23T07:51:55.131Z,39.38
2017-11-23T07:51:55.587Z,39.38
2017-11-23T07:51:56.101Z,39.38
2017-11-23T07:52:50.018Z,39.38
2017-11-23T07:52:50.517Z,39.38
2017-11-23T07:52:51.020Z,39.38
2017-11-23T07:52:52.043Z,39.38
2017-11-23T07:52:52.515Z,39.38
2017-11-23T07:52:53.005Z,39.38
2017-11-23T07:52:53.518Z,39.38
2017-11-23T07:52:54.017Z,39.38
2017-11-23T07:53:48.528Z,39.38
2017-11-23T07:55:01.820Z,39.38
2017-11-23T07:55:02.310Z,39.38
2017-11-23T07:55:02.796Z,39.38
2017-11-23T07:55:03.311Z,39.38
2017-11-23T07:55:03.793Z,39.38
2017-11-23T07:55:04.296Z,39.38
2017-11-23T07:55:04.796Z,39.38
2017-11-23T07:55:05.849Z,39.38
2017-11-23T07:56:00.898Z,39.38
2017-11-23T07:56:02.387Z,39.38
2017-11-23T07:56:02.898Z,39.38
2017-11-23T07:56:03.390Z,39.38
2017-11-23T07:57:16.699Z,39.38
2017-11-23T07:57:17.150Z,39.38
2017-11-23T07:57:17.629Z,39.38
2017-11-23T07:57:18.724Z,39.38
2017-11-23T07:57:19.224Z,39.38
2017-11-23T07:57:19.712Z,39.38
2017-11-23T07:57:20.218Z,39.38
2017-11-23T07:57:20.709Z,39.38
2017-11-23T07:58:15.287Z,39.38
2017-11-23T07:58:15.775Z,39.38
2017-11-23T07:58:16.267Z,39.38
2017-11-23T07:58:16.780Z,39.38
2017-11-23T07:58:18.250Z,39.38
2017-11-23T07:58:18.762Z,39.38
2017-11-23T07:59:33.249Z,39.38
2017-11-23T07:59:34.712Z,39.38
2017-11-23T07:59:35.224Z,39.38
2017-11-23T07:59:35.720Z,39.38
2017-11-23T07:59:36.172Z,39.38
2017-11-23T07:59:36.657Z,39.38
2017-11-23T08:00:31.747Z,39.38
2017-11-23T08:00:32.248Z,39.38
2017-11-23T08:00:33.737Z,39.38
2017-11-23T08:00:34.244Z,39.38
2017-11-23T08:00:34.737Z,39.38
2017-11-23T08:00:35.268Z,39.38
2017-11-23T08:01:30.308Z,39.38
2017-11-23T08:01:30.800Z,39.38
2017-11-23T08:01:31.338Z,39.38
2017-11-23T08:01:31.815Z,39.38
2017-11-23T08:01:32.327Z,39.38
2017-11-23T08:02:46.283Z,45.00
2017-11-23T08:02:46.756Z,45.00
2017-11-23T08:02:47.206Z,45.00
2017-11-23T08:02:47.712Z,45.00
2017-11-23T08:02:48.214Z,45.00
2017-11-23T08:02:48.698Z,45.00
2017-11-23T08:02:49.777Z,45.00
2017-11-23T08:02:50.292Z,45.00
2017-11-23T08:03:44.853Z,45.00
2017-11-23T08:03:45.341Z,45.00
2017-11-23T08:03:46.834Z,45.00
2017-11-23T08:03:47.343Z,45.00
2017-11-23T08:03:47.844Z,45.00
2017-11-23T08:03:48.322Z,45.00
2017-11-23T08:03:48.792Z,45.00
2017-11-23T08:04:43.352Z,45.00
2017-11-23T08:04:43.855Z,45.00
2017-11-23T08:05:57.204Z,50.63
2017-11-23T08:05:57.675Z,50.63
2017-11-23T08:05:58.162Z,50.63
2017-11-23T08:05:58.672Z,50.63
2017-11-23T08:05:59.173Z,50.63
2017-11-23T08:05:59.691Z,50.63
2017-11-23T08:06:01.158Z,50.63
2017-11-23T08:06:55.656Z,50.63
2017-11-23T08:06:56.134Z,50.63
2017-11-23T08:08:09.465Z,50.63
2017-11-23T08:08:09.976Z,50.63
2017-11-23T08:08:10.460Z,50.63
2017-11-23T08:08:10.951Z,50.63
2017-11-23T08:08:11.463Z,50.63
2017-11-23T08:09:25.278Z,50.63
2017-11-23T08:09:25.768Z,50.63
2017-11-23T08:09:26.265Z,50.63
2017-11-23T08:09:26.780Z,50.63
2017-11-23T08:09:27.264Z,50.63
2017-11-23T08:09:27.767Z,50.63
2017-11-23T08:09:28.267Z,50.63
2017-11-23T08:09:28.772Z,50.63
2017-11-23T08:10:23.329Z,50.63
2017-11-23T08:10:23.821Z,50.63
2017-11-23T08:10:24.316Z,50.63
2017-11-23T08:10:25.823Z,50.63
2017-11-23T08:10:26.325Z,50.63
2017-11-23T08:10:26.851Z,50.63
2017-11-23T08:10:27.329Z,50.63
2017-11-23T08:11:22.373Z,50.63
2017-11-23T08:11:22.861Z,50.63
2017-11-23T08:11:23.358Z,50.63
2017-11-23T08:11:23.861Z,50.63
2017-11-23T08:11:24.874Z,50.63
2017-11-23T08:12:38.827Z,50.63
2017-11-23T08:12:39.308Z,50.63
2017-11-23T08:12:40.316Z,50.63
2017-11-23T08:12:40.838Z,50.63
2017-11-23T08:12:41.863Z,50.63
2017-11-23T08:12:42.333Z,50.63
2017-11-23T08:12:42.835Z,50.63
2017-11-23T08:13:37.364Z,50.63
2017-11-23T08:13:37.856Z,50.63
2017-11-23T08:13:38.345Z,50.63
2017-11-23T08:13:39.367Z,50.63
2017-11-23T08:13:39.879Z,50.63
2017-11-23T08:13:40.385Z,50.63
2017-11-23T08:13:40.886Z,50.63
2017-11-23T08:13:41.387Z,50.63
2017-11-23T08:14:35.966Z,50.63
2017-11-23T08:14:36.406Z,50.63
2017-11-23T08:14:36.875Z,50.63
2017-11-23T08:14:37.374Z,50.63
2017-11-23T08:14:37.871Z,50.63
2017-11-23T08:14:38.401Z,50.63
2017-11-23T08:14:38.876Z,50.63
2017-11-23T08:14:39.825Z,50.63
2017-11-23T08:14:39.867Z,50.63
2017-11-23T08:15:33.737Z,56.25
2017-11-23T08:15:34.201Z,56.25
2017-11-23T08:15:34.671Z,56.25
2017-11-23T08:15:35.200Z,56.25
2017-11-23T08:15:35.663Z,56.25
2017-11-23T08:15:36.175Z,56.25
2017-11-23T08:15:36.675Z,56.25
2017-11-23T08:15:37.198Z,56.25
2017-11-23T08:15:37.692Z,56.25
2017-11-23T08:16:32.277Z,61.88
2017-11-23T08:16:32.768Z,61.88
2017-11-23T08:17:47.086Z,56.25
2017-11-23T08:17:48.040Z,56.25
2017-11-23T08:17:48.506Z,56.25
2017-11-23T08:17:48.546Z,56.25
2017-11-23T08:17:49.043Z,56.25
2017-11-23T08:17:49.547Z,56.25
2017-11-23T08:17:50.044Z,56.25
2017-11-23T08:18:44.615Z,56.25
2017-11-23T08:18:45.108Z,56.25
2017-11-23T08:18:45.608Z,56.25
2017-11-23T08:18:46.593Z,56.25
2017-11-23T08:18:47.090Z,56.25
2017-11-23T08:18:47.594Z,56.25
2017-11-23T08:18:48.104Z,56.25
2017-11-23T08:18:48.609Z,56.25
2017-11-23T08:19:43.130Z,61.88
2017-11-23T08:19:43.619Z,61.88
2017-11-23T08:19:44.112Z,61.88
2017-11-23T08:19:44.607Z,61.88
2017-11-23T08:19:45.119Z,61.88
2017-11-23T08:19:45.608Z,61.88
2017-11-23T08:19:46.124Z,61.88
2017-11-23T08:19:47.142Z,61.88
2017-11-23T08:20:41.679Z,61.88
2017-11-23T08:20:42.677Z,61.88
2017-11-23T08:20:43.187Z,61.88
2017-11-23T08:20:43.670Z,61.88
2017-11-23T08:20:44.689Z,61.88
2017-11-23T08:20:45.215Z,61.88
2017-11-23T08:20:45.690Z,61.88
2017-11-23T08:21:40.733Z,61.88
2017-11-23T08:21:41.191Z,61.88
2017-11-23T08:21:42.239Z,61.88
2017-11-23T08:21:42.760Z,61.88
2017-11-23T08:21:44.238Z,61.88
2017-11-23T08:22:38.766Z,67.50
2017-11-23T08:22:39.241Z,67.50
2017-11-23T08:22:39.733Z,67.50
2017-11-23T08:22:40.776Z,67.50
2017-11-23T08:22:41.285Z,67.50
2017-11-23T08:22:41.798Z,67.50
2017-11-23T08:22:42.293Z,67.50
2017-11-23T08:22:42.798Z,67.50
2017-11-23T08:23:37.376Z,67.50
2017-11-23T08:23:38.838Z,67.50
2017-11-23T08:23:39.853Z,67.50
2017-11-23T08:23:40.352Z,67.50
2017-11-23T08:24:53.657Z,67.50
2017-11-23T08:24:54.159Z,67.50
2017-11-23T08:24:54.645Z,67.50
2017-11-23T08:24:55.139Z,67.50
2017-11-23T08:24:55.644Z,67.50
2017-11-23T08:24:56.135Z,67.50
2017-11-23T08:24:56.637Z,67.50
2017-11-23T08:24:57.136Z,67.50
2017-11-23T08:26:11.110Z,67.50
2017-11-23T08:26:11.594Z,67.50
2017-11-23T08:26:12.088Z,67.50
2017-11-23T08:26:12.545Z,67.50
2017-11-23T08:26:13.061Z,67.50
2017-11-23T08:26:13.549Z,67.50
2017-11-23T08:26:14.061Z,67.50
2017-11-23T08:26:14.515Z,67.50
2017-11-23T08:26:15.005Z,67.50
2017-11-23T08:27:09.449Z,61.88
2017-11-23T08:27:09.937Z,61.88
2017-11-23T08:27:10.437Z,61.88
2017-11-23T08:27:10.907Z,61.88
2017-11-23T08:27:11.399Z,61.88
2017-11-23T08:28:25.352Z,67.50
2017-11-23T08:28:26.307Z,67.50
2017-11-23T08:28:26.800Z,67.50
2017-11-23T08:28:26.805Z,67.50
2017-11-23T08:28:27.848Z,67.50
2017-11-23T08:28:28.353Z,67.50
2017-11-23T08:28:28.875Z,67.50
2017-11-23T08:29:42.160Z,73.13
2017-11-23T08:29:42.653Z,73.13
2017-11-23T08:29:43.107Z,73.13
2017-11-23T08:29:44.085Z,73.13
2017-11-23T08:29:44.611Z,73.13
2017-11-23T08:29:44.621Z,73.13
2017-11-23T08:29:45.090Z,73.13
2017-11-23T08:29:45.595Z,73.13
2017-11-23T08:29:46.082Z,73.13
2017-11-23T08:30:41.045Z,78.75
2017-11-23T08:30:42.028Z,78.75
2017-11-23T08:30:42.560Z,78.75
2017-11-23T08:30:43.037Z,78.75
2017-11-23T08:30:43.548Z,78.75
2017-11-23T08:30:44.054Z,78.75
2017-11-23T08:31:38.622Z,84.38
2017-11-23T08:31:39.104Z,84.38
2017-11-23T08:31:39.605Z,84.38
2017-11-23T08:31:40.107Z,84.38
2017-11-23T08:31:40.624Z,84.38
2017-11-23T08:32:54.568Z,84.38
2017-11-23T08:32:55.063Z,84.38
2017-11-23T08:32:55.555Z,84.38
2017-11-23T08:34:09.366Z,84.38
2017-11-23T08:34:09.864Z,84.38
2017-11-23T08:34:10.364Z,84.38
2017-11-23T08:34:10.871Z,84.38
2017-11-23T08:34:11.365Z,84.38
2017-11-23T08:34:11.833Z,84.38
2017-11-23T08:34:12.317Z,84.38
2017-11-23T08:34:12.847Z,84.38
2017-11-23T08:35:07.374Z,78.75
2017-11-23T08:35:07.835Z,78.75
2017-11-23T08:35:08.317Z,78.75
2017-11-23T08:36:21.608Z,73.13
2017-11-23T08:36:22.557Z,73.13
2017-11-23T08:36:23.056Z,73.13
2017-11-23T08:36:23.614Z,73.13
2017-11-23T08:36:24.144Z,73.13
2017-11-23T08:36:24.625Z,73.13
2017-11-23T08:36:25.127Z,73.13
2017-11-23T08:36:25.615Z,73.13
2017-11-23T08:37:20.635Z,78.75
2017-11-23T08:37:21.140Z,78.75
2017-11-23T08:37:21.647Z,78.75
2017-11-23T08:38:34.983Z,78.75
2017-11-23T08:38:36.445Z,78.75
2017-11-23T08:38:36.942Z,78.75
2017-11-23T08:39:50.212Z,84.38
2017-11-23T08:39:50.698Z,84.38
2017-11-23T08:39:51.185Z,84.38
2017-11-23T08:39:51.681Z,84.38
2017-11-23T08:39:52.729Z,84.38
2017-11-23T08:39:53.239Z,84.38
2017-11-23T08:39:53.729Z,84.38
2017-11-23T08:39:54.241Z,84.38
2017-11-23T08:40:48.789Z,101.25
2017-11-23T08:40:49.291Z,101.25
2017-11-23T08:40:49.798Z,101.25
2017-11-23T08:40:50.246Z,101.25
2017-11-23T08:40:50.763Z,101.25
2017-11-23T08:40:51.776Z,101.25
2017-11-23T08:40:52.277Z,101.25
2017-11-23T08:40:52.791Z,101.25
2017-11-23T08:41:47.323Z,112.50
2017-11-23T08:41:48.344Z,112.50
2017-11-23T08:41:48.847Z,112.50
2017-11-23T08:41:49.336Z,112.50
2017-11-23T08:41:49.853Z,112.50
2017-11-23T08:41:50.332Z,112.50
2017-11-23T08:41:50.847Z,112.50
2017-11-23T08:41:51.337Z,112.50
2017-11-23T08:42:46.870Z,123.75
2017-11-23T08:42:47.365Z,123.75
2017-11-23T08:42:48.383Z,123.75
2017-11-23T08:42:48.895Z,123.75
2017-11-23T08:42:49.388Z,123.75
2017-11-23T08:42:49.854Z,123.75
2017-11-23T08:43:44.394Z,140.63
2017-11-23T08:43:44.870Z,140.63
2017-11-23T08:43:45.911Z,140.63
2017-11-23T08:43:46.434Z,140.63
2017-11-23T08:43:46.904Z,140.63
2017-11-23T08:52:18.354Z,78.75
2017-11-23T08:52:18.854Z,78.75
2017-11-23T08:52:19.365Z,78.75
2017-11-23T08:52:19.863Z,78.75
2017-11-23T08:52:20.376Z,78.75
2017-11-23T08:52:20.849Z,78.75
2017-11-23T08:53:34.796Z,73.13
2017-11-23T08:53:35.290Z,73.13
2017-11-23T08:53:35.779Z,73.13
2017-11-23T08:53:36.276Z,73.13
2017-11-23T08:53:36.780Z,73.13
2017-11-23T08:53:37.266Z,73.13
2017-11-23T08:53:37.770Z,73.13
2017-11-23T08:53:38.269Z,73.13
2017-11-23T08:53:38.772Z,73.13
2017-11-23T08:54:33.357Z,84.38
2017-11-23T08:54:33.852Z,84.38
2017-11-23T08:54:34.348Z,84.38
2017-11-23T08:54:34.857Z,84.38
2017-11-23T08:54:35.349Z,84.38
2017-11-23T08:54:35.853Z,84.38
2017-11-23T08:54:36.364Z,84.38
2017-11-23T08:55:49.647Z,90.00
2017-11-23T08:55:50.129Z,90.00
2017-11-23T08:55:50.612Z,90.00
2017-11-23T08:55:51.112Z,90.00
2017-11-23T08:55:51.607Z,90.00
2017-11-23T08:55:52.106Z,90.00
2017-11-23T08:55:52.608Z,90.00
2017-11-23T08:55:53.108Z,90.00
2017-11-23T08:55:53.610Z,90.00
2017-11-23T08:56:48.191Z,84.38
2017-11-23T08:56:48.683Z,84.38
2017-11-23T08:56:49.692Z,84.38
2017-11-23T08:56:50.197Z,84.38
2017-11-23T08:56:50.709Z,84.38
2017-11-23T08:56:51.194Z,84.38
2017-11-23T08:56:51.715Z,84.38
2017-11-23T08:56:52.217Z,84.38
2017-11-23T08:57:46.752Z,78.75
2017-11-23T08:57:47.233Z,78.75
2017-11-23T08:57:47.724Z,78.75
2017-11-23T08:57:49.764Z,78.75
2017-11-23T08:57:50.280Z,78.75
2017-11-23T08:57:50.751Z,78.75
2017-11-23T08:58:45.282Z,78.75
2017-11-23T08:58:45.769Z,78.75
2017-11-23T08:58:46.258Z,78.75
2017-11-23T08:58:46.755Z,78.75
2017-11-23T08:58:47.808Z,78.75
2017-11-23T08:58:48.324Z,78.75
2017-11-23T08:58:48.804Z,78.75
2017-11-23T08:58:49.316Z,78.75
2017-11-23T08:59:43.836Z,73.13
2017-11-23T08:59:44.334Z,73.13
2017-11-23T08:59:44.836Z,73.13
2017-11-23T08:59:45.296Z,73.13
2017-11-23T08:59:46.366Z,73.13
2017-11-23T08:59:46.893Z,73.13
2017-11-23T08:59:47.383Z,73.13
2017-11-23T08:59:47.888Z,73.13
2017-11-23T09:00:42.461Z,84.38
2017-11-23T09:00:42.945Z,84.38
2017-11-23T09:00:43.437Z,84.38
2017-11-23T09:00:43.899Z,84.38
2017-11-23T09:00:44.397Z,84.38
2017-11-23T09:00:45.456Z,84.38
2017-11-23T09:00:45.960Z,84.38
2017-11-23T09:00:46.442Z,84.38
2017-11-23T09:01:41.985Z,90.00
2017-11-23T09:01:42.505Z,90.00
2017-11-23T09:01:42.988Z,90.00
2017-11-23T09:01:43.504Z,90.00
2017-11-23T09:01:43.998Z,90.00
2017-11-23T09:01:44.548Z,90.00
2017-11-23T09:01:45.006Z,90.00
2017-11-23T09:02:39.544Z,112.50
2017-11-23T09:02:40.047Z,112.50
2017-11-23T09:02:40.528Z,118.13
2017-11-23T09:02:41.013Z,118.13
2017-11-23T09:02:42.062Z,118.13
2017-11-23T09:02:43.549Z,118.13
2017-11-23T09:03:38.089Z,129.38
2017-11-23T09:03:39.100Z,129.38
2017-11-23T09:03:39.592Z,129.38
2017-11-23T09:03:40.087Z,129.38
2017-11-23T09:03:40.597Z,129.38
2017-11-23T09:04:53.878Z,112.50
2017-11-23T09:04:54.368Z,112.50
2017-11-23T09:04:54.860Z,112.50
2017-11-23T09:04:55.367Z,112.50
2017-11-23T09:04:56.393Z,112.50